Time;durP1;ratioP1;P1;durP2;ratioP2;P2;SDS_P1;SDS_P2;PMS_P1;PMS_P2;Temp;Humidity;BMP_temperature;BMP_pressure;BME280_temperature;BME280_humidity;BME280_pressure;Samples;Min_cycle;Max_cycle;Signal;HPM_P1;HPM_P2
2021/12/23 00:00:13;;;;;;;48.05;23.20;;;-2.60;99.90;;;;;;5088364;28;20378;-41
2021/12/23 00:02:39;;;;;;;47.83;23.58;;;-2.60;99.90;;;;;;5086979;28;20444;-42
2021/12/23 00:05:07;;;;;;;44.85;22.70;;;-2.60;99.90;;;;;;5088741;28;20034;-41
2021/12/23 00:07:32;;;;;;;48.65;23.05;;;-2.50;99.90;;;;;;5086508;28;20385;-42
2021/12/23 00:10:08;;;;;;;39.60;20.73;;;-2.60;99.90;;;;;;5077436;28;20031;-42
2021/12/23 00:12:36;;;;;;;44.92;22.70;;;-2.50;99.90;;;;;;5088684;28;20023;-41
2021/12/23 00:15:03;;;;;;;46.63;21.55;;;-2.50;99.90;;;;;;5088560;28;20106;-42
2021/12/23 00:25:15;;;;;;;41.03;21.90;;;-2.50;99.90;;;;;;5068510;28;20573;-41
2021/12/23 00:27:41;;;;;;;51.72;23.63;;;-2.50;99.90;;;;;;5067534;28;20025;-42
2021/12/23 00:30:08;;;;;;;47.50;24.30;;;-2.50;99.90;;;;;;5067990;28;20059;-43
2021/12/23 00:32:33;;;;;;;50.42;22.52;;;-2.50;99.90;;;;;;5068076;28;20035;-42
2021/12/23 00:35:00;;;;;;;48.63;21.50;;;-2.50;99.90;;;;;;5068159;28;20020;-42
2021/12/23 00:37:25;;;;;;;46.83;23.30;;;-2.50;99.90;;;;;;5067455;28;20036;-40
2021/12/23 00:39:52;;;;;;;50.55;23.83;;;-2.50;99.90;;;;;;5068092;28;20036;-40
2021/12/23 00:42:18;;;;;;;47.60;21.35;;;-2.50;99.90;;;;;;5066651;28;20024;-40
2021/12/23 00:44:47;;;;;;;50.90;23.83;;;-2.50;99.90;;;;;;5072763;28;20036;-40
2021/12/23 00:47:14;;;;;;;44.95;21.42;;;-2.50;99.90;;;;;;5080665;28;20112;-42
2021/12/23 00:49:40;;;;;;;52.00;24.77;;;-2.50;99.90;;;;;;5084545;28;20020;-42
2021/12/23 00:52:08;;;;;;;46.15;20.80;;;-2.50;99.90;;;;;;5090464;28;20339;-42
2021/12/23 00:54:34;;;;;;;45.67;22.00;;;-2.50;99.90;;;;;;5091744;28;20052;-42
2021/12/23 00:56:59;;;;;;;42.22;20.58;;;-2.50;99.90;;;;;;5091640;28;20064;-40
2021/12/23 00:59:25;;;;;;;44.67;21.13;;;-2.50;99.90;;;;;;5091041;28;20035;-40
2021/12/23 01:01:50;;;;;;;47.03;22.83;;;-2.50;99.90;;;;;;5091726;28;20075;-42
2021/12/23 01:04:16;;;;;;;50.05;22.77;;;-2.60;99.90;;;;;;5091600;28;20239;-42
2021/12/23 01:06:42;;;;;;;47.17;21.08;;;-2.60;99.90;;;;;;5091540;28;20089;-42
2021/12/23 01:09:08;;;;;;;47.78;23.40;;;-2.70;99.90;;;;;;5090861;28;20039;-42
2021/12/23 01:11:34;;;;;;;41.83;20.83;;;-2.60;99.90;;;;;;5091567;28;20032;-40
2021/12/23 01:14:03;;;;;;;50.05;21.75;;;-2.60;99.90;;;;;;5091352;28;20035;-42
2021/12/23 01:16:48;;;;;;;41.58;20.33;;;-2.60;99.90;;;;;;5086703;28;20024;-42
2021/12/23 01:19:18;;;;;;;42.15;22.50;;;-2.60;99.90;;;;;;5080852;28;20016;-42
2021/12/23 01:21:44;;;;;;;42.50;19.25;;;-2.50;99.90;;;;;;5091132;28;20477;-42
2021/12/23 01:24:10;;;;;;;42.35;21.70;;;-2.60;99.90;;;;;;5091261;28;20110;-42
2021/12/23 01:26:37;;;;;;;43.63;20.55;;;-2.60;99.90;;;;;;5091088;28;20150;-42
2021/12/23 01:29:03;;;;;;;43.00;21.40;;;-2.60;99.90;;;;;;5090437;28;20024;-42
2021/12/23 01:31:31;;;;;;;45.60;21.58;;;-2.60;99.90;;;;;;5086840;28;20015;-42
2021/12/23 01:33:57;;;;;;;46.47;21.35;;;-2.60;99.90;;;;;;5079840;28;20009;-43
2021/12/23 01:36:24;;;;;;;37.88;18.73;;;-2.60;99.90;;;;;;5090852;28;20051;-42
2021/12/23 01:38:50;;;;;;;36.45;19.70;;;-2.60;99.90;;;;;;5090165;28;20119;-42
2021/12/23 01:41:18;;;;;;;39.20;19.52;;;-2.60;99.90;;;;;;5091068;28;20052;-42
2021/12/23 01:43:44;;;;;;;47.33;21.60;;;-2.60;99.90;;;;;;5090738;28;20027;-42
2021/12/23 01:46:10;;;;;;;44.35;21.52;;;-2.50;99.90;;;;;;5090377;28;20028;-42
2021/12/23 01:48:35;;;;;;;41.40;20.58;;;-2.60;99.90;;;;;;5090491;28;20086;-40
2021/12/23 01:51:02;;;;;;;43.60;20.23;;;-2.50;99.90;;;;;;5084202;28;20421;-40
2021/12/23 01:53:27;;;;;;;49.38;20.13;;;-2.50;99.90;;;;;;5082090;28;20126;-40
2021/12/23 01:55:53;;;;;;;42.20;19.20;;;-2.50;99.90;;;;;;5090734;28;20036;-40
2021/12/23 01:58:19;;;;;;;39.72;19.83;;;-2.50;99.90;;;;;;5089950;28;20503;-40
2021/12/23 02:00:48;;;;;;;43.05;20.45;;;-2.50;99.90;;;;;;5090340;28;20056;-40
2021/12/23 02:03:14;;;;;;;40.03;20.33;;;-2.50;99.90;;;;;;5090028;28;20089;-40
2021/12/23 02:05:40;;;;;;;38.65;19.55;;;-2.50;99.90;;;;;;5083273;28;20017;-40
2021/12/23 02:08:07;;;;;;;38.13;20.15;;;-2.50;99.90;;;;;;5079631;28;20024;-40
2021/12/23 02:10:32;;;;;;;43.92;21.38;;;-2.50;99.90;;;;;;5090183;28;20020;-40
2021/12/23 02:12:59;;;;;;;45.58;20.63;;;-2.40;99.90;;;;;;5090259;28;20381;-40
2021/12/23 02:15:25;;;;;;;40.03;20.65;;;-2.40;99.90;;;;;;5090147;28;20495;-40
2021/12/23 02:17:51;;;;;;;48.05;20.67;;;-2.40;99.90;;;;;;5077874;28;20102;-42
2021/12/23 02:20:20;;;;;;;44.10;21.55;;;-2.40;99.90;;;;;;5089990;28;20074;-42
2021/12/23 02:22:46;;;;;;;51.33;22.80;;;-2.40;99.90;;;;;;5090292;28;20224;-40
2021/12/23 02:25:13;;;;;;;44.90;22.83;;;-2.40;99.90;;;;;;5086860;28;20024;-40
2021/12/23 02:27:39;;;;;;;50.80;24.17;;;-2.40;99.90;;;;;;5077402;28;20020;-40
2021/12/23 02:30:08;;;;;;;47.10;21.90;;;-2.40;99.90;;;;;;5087883;28;20028;-41
2021/12/23 02:32:35;;;;;;;47.15;22.77;;;-2.40;99.90;;;;;;5089761;28;20028;-40
2021/12/23 02:35:01;;;;;;;49.72;23.05;;;-2.40;99.90;;;;;;5089859;28;20432;-40
2021/12/23 02:37:26;;;;;;;45.85;22.70;;;-2.40;99.90;;;;;;5089164;28;20024;-41
2021/12/23 02:39:52;;;;;;;41.67;21.33;;;-2.40;99.90;;;;;;5089943;28;20074;-41
2021/12/23 02:42:17;;;;;;;46.45;22.67;;;-2.40;99.90;;;;;;5089770;28;20299;-40
2021/12/23 02:44:43;;;;;;;40.00;20.75;;;-2.30;99.90;;;;;;5088192;28;20465;-40
2021/12/23 02:47:08;;;;;;;44.03;22.98;;;-2.30;99.90;;;;;;5089229;28;20028;-41
2021/12/23 02:49:34;;;;;;;48.40;24.02;;;-2.30;99.90;;;;;;5087625;28;20023;-41
2021/12/23 02:51:59;;;;;;;45.10;22.85;;;-2.30;99.90;;;;;;5089379;28;20024;-41
2021/12/23 02:54:25;;;;;;;41.08;21.42;;;-2.30;99.90;;;;;;5089550;28;20024;-41
2021/12/23 02:56:51;;;;;;;50.40;22.08;;;-2.30;99.90;;;;;;5081622;28;20056;-41
2021/12/23 02:59:16;;;;;;;44.75;22.95;;;-2.40;99.90;;;;;;5095861;28;20027;-41
2021/12/23 03:01:42;;;;;;;41.38;20.65;;;-2.40;99.90;;;;;;5087532;28;20061;-41
2021/12/23 03:04:07;;;;;;;50.95;22.05;;;-2.40;99.90;;;;;;5089462;28;20039;-41
2021/12/23 03:06:33;;;;;;;46.10;21.90;;;-2.40;99.90;;;;;;5072574;28;20025;-41
2021/12/23 03:09:03;;;;;;;46.65;22.05;;;-2.30;99.90;;;;;;5067903;28;20108;-42
2021/12/23 03:11:29;;;;;;;43.90;23.15;;;-2.30;99.90;;;;;;5068470;28;20082;-41
2021/12/23 03:13:56;;;;;;;47.50;21.27;;;-2.30;99.90;;;;;;5070837;28;20074;-42
2021/12/23 03:16:25;;;;;;;46.15;22.67;;;-2.30;99.90;;;;;;5068130;28;20084;-42
2021/12/23 03:18:50;;;;;;;46.20;23.35;;;-2.20;99.90;;;;;;5076816;28;20576;-41
2021/12/23 03:21:16;;;;;;;44.40;22.33;;;-2.20;99.90;;;;;;5068592;28;20032;-42
2021/12/23 03:23:42;;;;;;;52.10;23.10;;;-2.20;99.90;;;;;;5068340;28;20175;-41
2021/12/23 03:26:08;;;;;;;44.70;21.92;;;-2.20;99.90;;;;;;5068571;28;20072;-42
2021/12/23 03:28:34;;;;;;;47.88;22.42;;;-2.10;99.90;;;;;;5067845;28;20120;-41
2021/12/23 03:31:00;;;;;;;45.38;21.85;;;-2.20;99.90;;;;;;5068754;28;20040;-41
2021/12/23 03:33:26;;;;;;;42.05;21.30;;;-2.10;99.90;;;;;;5069613;28;20146;-42
2021/12/23 03:35:52;;;;;;;45.72;22.55;;;-2.10;99.90;;;;;;5066942;28;20032;-41
2021/12/23 03:38:19;;;;;;;37.05;20.70;;;-2.10;99.90;;;;;;5064791;28;20482;-41
2021/12/23 03:40:49;;;;;;;44.25;21.30;;;-2.10;99.90;;;;;;5068152;28;20041;-41
2021/12/23 03:43:16;;;;;;;41.65;20.45;;;-2.10;99.90;;;;;;5068444;28;20398;-41
2021/12/23 03:45:43;;;;;;;43.42;21.52;;;-2.00;99.90;;;;;;5068525;28;20028;-41
2021/12/23 03:48:09;;;;;;;47.60;21.70;;;-2.00;99.90;;;;;;5067647;28;20036;-42
2021/12/23 03:50:35;;;;;;;41.28;21.95;;;-2.10;99.90;;;;;;5067059;28;20028;-42
2021/12/23 03:53:01;;;;;;;41.60;21.23;;;-2.10;99.90;;;;;;5068547;28;20021;-41
2021/12/23 03:55:27;;;;;;;37.50;19.70;;;-2.10;99.90;;;;;;5068431;28;20022;-41
2021/12/23 03:57:52;;;;;;;36.65;20.35;;;-2.10;99.90;;;;;;5066451;28;20074;-41
2021/12/23 04:00:20;;;;;;;39.55;18.95;;;-2.00;99.90;;;;;;5068311;28;20093;-41
2021/12/23 04:02:47;;;;;;;35.45;19.23;;;-2.00;99.90;;;;;;5076293;28;20518;-41
2021/12/23 04:05:13;;;;;;;33.47;17.48;;;-2.00;99.90;;;;;;5087953;28;20028;-41
2021/12/23 04:07:39;;;;;;;37.60;19.92;;;-2.00;99.90;;;;;;5088015;28;20020;-41
2021/12/23 04:10:10;;;;;;;40.80;20.48;;;-1.90;99.90;;;;;;5083685;28;20039;-41
2021/12/23 04:12:36;;;;;;;42.75;19.98;;;-1.90;99.90;;;;;;5082587;28;20107;-41
2021/12/23 04:15:02;;;;;;;37.55;18.15;;;-1.90;99.90;;;;;;5086571;28;20442;-41
2021/12/23 04:17:27;;;;;;;45.30;20.50;;;-1.90;99.90;;;;;;5069442;28;20017;-41
2021/12/23 04:19:59;;;;;;;36.60;17.98;;;-1.90;99.90;;;;;;5078918;28;20035;-41
2021/12/23 04:22:25;;;;;;;33.72;18.02;;;-1.90;99.90;;;;;;5085292;28;20020;-41
2021/12/23 04:24:50;;;;;;;38.35;19.73;;;-1.90;99.90;;;;;;5089246;28;20020;-41
2021/12/23 04:27:16;;;;;;;40.83;19.65;;;-1.80;99.90;;;;;;5091498;28;20077;-41
2021/12/23 04:29:41;;;;;;;38.85;19.65;;;-1.80;99.90;;;;;;5092403;28;20042;-41
2021/12/23 04:32:07;;;;;;;36.58;18.75;;;-1.80;99.90;;;;;;5092058;28;20513;-41
2021/12/23 04:34:33;;;;;;;37.38;19.38;;;-1.80;99.90;;;;;;5090740;28;20023;-41
2021/12/23 04:36:58;;;;;;;40.60;21.83;;;-1.70;99.90;;;;;;5092100;28;20024;-41
2021/12/23 04:39:24;;;;;;;46.88;21.90;;;-1.70;99.90;;;;;;5091265;28;20036;-41
2021/12/23 04:41:49;;;;;;;37.17;20.05;;;-1.70;99.90;;;;;;5091954;28;20028;-41
2021/12/23 04:44:15;;;;;;;38.42;18.90;;;-1.70;99.90;;;;;;5091948;28;20028;-42
2021/12/23 04:46:40;;;;;;;48.72;22.33;;;-1.70;99.90;;;;;;5085097;28;20036;-41
2021/12/23 04:49:05;;;;;;;47.85;22.05;;;-1.70;99.90;;;;;;5081092;28;20086;-41
2021/12/23 04:51:31;;;;;;;45.00;21.42;;;-1.70;99.90;;;;;;5091936;28;20028;-41
2021/12/23 04:53:56;;;;;;;37.47;19.83;;;-1.70;99.90;;;;;;5092312;28;20101;-41
2021/12/23 04:56:22;;;;;;;46.53;22.15;;;-1.70;99.90;;;;;;5074495;28;20099;-41
2021/12/23 04:58:48;;;;;;;40.28;22.10;;;-1.70;99.90;;;;;;5070738;28;20032;-41
2021/12/23 05:01:21;;;;;;;41.13;21.55;;;-1.70;99.90;;;;;;5070898;28;20032;-42
2021/12/23 05:03:47;;;;;;;36.95;19.63;;;-1.70;99.90;;;;;;5071471;28;20115;-42
2021/12/23 05:06:14;;;;;;;43.45;21.85;;;-1.70;99.90;;;;;;5071179;28;20039;-42
2021/12/23 05:08:40;;;;;;;44.92;21.95;;;-1.70;99.90;;;;;;5070607;28;20031;-42
2021/12/23 05:11:06;;;;;;;42.97;21.35;;;-1.70;99.90;;;;;;5071165;28;20112;-41
2021/12/23 05:13:31;;;;;;;46.17;21.60;;;-1.70;99.90;;;;;;5053060;28;20025;-41
2021/12/23 05:15:56;;;;;;;45.05;21.95;;;-1.70;99.90;;;;;;5070828;28;20190;-41
2021/12/23 05:18:22;;;;;;;41.90;22.65;;;-1.80;99.90;;;;;;5077842;28;20016;-42
2021/12/23 05:20:48;;;;;;;39.85;21.45;;;-1.80;99.90;;;;;;5087004;28;20036;-42
2021/12/23 05:23:14;;;;;;;42.90;21.25;;;-1.80;99.90;;;;;;5091137;28;20051;-43
2021/12/23 05:25:40;;;;;;;44.42;22.00;;;-1.80;99.90;;;;;;5089575;28;20645;-42
2021/12/23 05:28:05;;;;;;;41.65;22.33;;;-1.70;99.90;;;;;;5090442;28;20035;-42
2021/12/23 05:30:31;;;;;;;40.05;20.42;;;-1.70;99.90;;;;;;5091500;28;20385;-42
2021/12/23 05:32:57;;;;;;;43.75;22.35;;;-1.70;99.90;;;;;;5084650;28;20074;-42
2021/12/23 05:35:23;;;;;;;43.45;23.20;;;-1.60;99.90;;;;;;5082200;28;20027;-42
2021/12/23 05:37:50;;;;;;;45.00;22.35;;;-1.60;99.90;;;;;;5090182;28;20017;-42
2021/12/23 05:40:19;;;;;;;42.63;21.13;;;-1.60;99.90;;;;;;5070503;28;20072;-44
2021/12/23 05:42:45;;;;;;;40.20;20.27;;;-1.60;99.90;;;;;;5066716;28;20040;-44
2021/12/23 05:45:11;;;;;;;40.50;20.77;;;-1.60;99.90;;;;;;5070471;28;20032;-42
2021/12/23 05:47:37;;;;;;;42.45;21.13;;;-1.50;99.90;;;;;;5069783;28;20021;-45
2021/12/23 05:50:04;;;;;;;35.67;18.40;;;-1.50;99.90;;;;;;5070271;28;20437;-44
2021/12/23 05:52:30;;;;;;;36.65;19.05;;;-1.50;99.90;;;;;;5070207;28;20016;-43
2021/12/23 05:54:57;;;;;;;31.52;18.17;;;-1.50;99.90;;;;;;5070321;28;20036;-44
2021/12/23 05:57:23;;;;;;;38.47;19.58;;;-1.50;99.90;;;;;;5068277;28;20555;-43
2021/12/23 05:59:49;;;;;;;36.38;19.52;;;-1.40;99.90;;;;;;5070127;28;20107;-43
2021/12/23 06:02:14;;;;;;;36.85;19.67;;;-1.50;99.90;;;;;;5069866;28;20163;-44
2021/12/23 06:04:39;;;;;;;42.50;20.73;;;-1.40;99.90;;;;;;5093849;28;20500;-43
2021/12/23 06:07:05;;;;;;;38.25;20.48;;;-1.40;99.90;;;;;;5088621;28;20028;-43
2021/12/23 06:09:31;;;;;;;37.55;19.33;;;-1.40;99.90;;;;;;5089483;28;20024;-45
2021/12/23 06:11:57;;;;;;;42.88;21.58;;;-1.50;99.90;;;;;;5088609;28;20027;-43
2021/12/23 06:14:22;;;;;;;41.65;21.35;;;-1.40;99.90;;;;;;5088560;28;20020;-43
2021/12/23 06:16:48;;;;;;;40.35;20.25;;;-1.50;99.90;;;;;;5083119;28;20257;-43
2021/12/23 06:19:14;;;;;;;34.38;18.85;;;-1.40;99.90;;;;;;5078850;28;20059;-43
2021/12/23 06:21:40;;;;;;;38.00;19.35;;;-1.40;99.90;;;;;;5089540;28;20032;-44
2021/12/23 06:24:06;;;;;;;34.75;18.88;;;-1.40;99.90;;;;;;5089906;28;20428;-43
2021/12/23 06:26:32;;;;;;;42.08;20.77;;;-1.30;99.90;;;;;;5090138;28;20044;-43
2021/12/23 06:28:58;;;;;;;37.38;19.70;;;-1.30;99.90;;;;;;5089330;28;20661;-43
2021/12/23 06:31:25;;;;;;;38.00;19.63;;;-1.40;99.90;;;;;;5086011;28;20031;-43
2021/12/23 06:33:51;;;;;;;39.75;20.73;;;-1.30;99.90;;;;;;5081567;28;20016;-43
2021/12/23 06:36:17;;;;;;;37.65;18.85;;;-1.30;99.90;;;;;;5090076;28;20081;-43
2021/12/23 06:38:43;;;;;;;33.95;18.30;;;-1.30;99.90;;;;;;5089078;28;20035;-44
2021/12/23 06:41:09;;;;;;;32.00;17.92;;;-1.40;99.90;;;;;;5089800;28;20036;-43
2021/12/23 06:43:35;;;;;;;35.03;18.42;;;-1.40;99.90;;;;;;5089866;28;20070;-44
2021/12/23 06:46:02;;;;;;;40.72;19.30;;;-1.30;99.90;;;;;;5089633;28;20527;-43
2021/12/23 06:48:28;;;;;;;36.50;17.88;;;-1.30;99.90;;;;;;5087895;28;20561;-43
2021/12/23 06:50:55;;;;;;;37.17;17.70;;;-1.30;99.90;;;;;;5088051;28;20024;-46
2021/12/23 06:53:21;;;;;;;30.33;16.33;;;-1.20;99.90;;;;;;5089288;28;20031;-43
2021/12/23 06:55:47;;;;;;;35.95;17.45;;;-1.20;99.90;;;;;;5088086;28;20026;-44
2021/12/23 06:58:13;;;;;;;32.20;17.23;;;-1.20;99.90;;;;;;5087348;28;20538;-44
2021/12/23 07:00:38;;;;;;;32.00;16.60;;;-1.20;99.90;;;;;;5088510;28;20302;-43
2021/12/23 07:03:04;;;;;;;35.67;17.50;;;-1.20;99.90;;;;;;5078754;28;20036;-44
2021/12/23 07:05:29;;;;;;;35.10;17.35;;;-1.20;99.90;;;;;;5089191;28;20103;-43
2021/12/23 07:08:10;;;;;;;32.83;17.58;;;-1.10;99.90;;;;;;5088548;28;20032;-44
2021/12/23 07:10:36;;;;;;;30.48;16.35;;;-1.10;99.90;;;;;;5087716;28;20107;-44
2021/12/23 07:13:02;;;;;;;34.15;18.02;;;-1.10;99.90;;;;;;5087768;28;20024;-42
2021/12/23 07:15:28;;;;;;;30.67;16.15;;;-1.00;99.90;;;;;;5088987;28;20550;-46
2021/12/23 07:17:56;;;;;;;31.17;16.42;;;-1.00;99.90;;;;;;5081422;28;20477;-43
2021/12/23 07:20:24;;;;;;;27.35;14.98;;;-1.00;99.90;;;;;;5081313;28;20040;-43
2021/12/23 07:22:50;;;;;;;27.08;16.08;;;-1.00;99.90;;;;;;5088736;28;20024;-43
2021/12/23 07:25:16;;;;;;;29.25;15.43;;;-1.00;99.90;;;;;;5081065;28;20021;-43
2021/12/23 07:27:42;;;;;;;28.83;16.17;;;-0.90;99.90;;;;;;5083442;28;20386;-46
2021/12/23 07:30:10;;;;;;;35.70;17.88;;;-0.90;99.90;;;;;;5088790;28;20520;-44
2021/12/23 07:32:35;;;;;;;27.67;15.30;;;-0.90;99.90;;;;;;5085003;28;20873;-43
2021/12/23 07:35:01;;;;;;;30.45;16.95;;;-0.90;99.90;;;;;;5076809;28;20075;-44
2021/12/23 07:37:27;;;;;;;26.08;13.95;;;-0.80;99.90;;;;;;5088109;28;20473;-43
2021/12/23 07:39:54;;;;;;;27.00;14.27;;;-0.90;99.90;;;;;;5081345;28;20032;-43
2021/12/23 07:42:20;;;;;;;25.83;15.05;;;-0.80;99.90;;;;;;5080878;28;20104;-45
2021/12/23 07:44:46;;;;;;;27.13;13.95;;;-0.80;99.90;;;;;;5087318;28;20468;-43
2021/12/23 07:47:14;;;;;;;24.27;13.50;;;-0.80;99.90;;;;;;5088118;28;20282;-44
2021/12/23 07:49:41;;;;;;;27.77;13.70;;;-0.70;99.90;;;;;;5088188;28;20020;-46
2021/12/23 07:52:07;;;;;;;27.98;14.60;;;-0.70;99.90;;;;;;5088562;28;20065;-44
2021/12/23 07:54:34;;;;;;;31.15;14.82;;;-0.70;99.90;;;;;;5088614;28;20031;-43
2021/12/23 07:56:59;;;;;;;29.00;14.40;;;-0.60;99.90;;;;;;5088724;28;20028;-43
2021/12/23 07:59:25;;;;;;;27.75;14.75;;;-0.60;99.90;;;;;;5091090;28;20028;-44
2021/12/23 08:01:51;;;;;;;24.85;14.00;;;-0.60;99.90;;;;;;5092766;28;20122;-46
2021/12/23 08:04:16;;;;;;;25.48;13.90;;;-0.60;99.90;;;;;;5092597;28;20427;-44
2021/12/23 08:06:42;;;;;;;22.75;12.60;;;-0.50;99.90;;;;;;5092122;28;20479;-44
2021/12/23 08:09:08;;;;;;;26.08;14.25;;;-0.40;99.90;;;;;;5084550;28;20021;-44
2021/12/23 08:11:34;;;;;;;28.85;16.02;;;-0.50;99.90;;;;;;5083733;28;20485;-44
2021/12/23 08:13:59;;;;;;;30.92;16.35;;;-0.40;99.90;;;;;;5092434;28;20024;-45
2021/12/23 08:16:25;;;;;;;28.23;16.33;;;-0.40;99.90;;;;;;5091117;28;20031;-44
2021/12/23 08:18:50;;;;;;;36.65;17.83;;;-0.40;99.90;;;;;;5079567;28;20017;-45
2021/12/23 08:21:16;;;;;;;32.95;17.50;;;-0.40;99.90;;;;;;5092381;28;20031;-46
2021/12/23 08:23:41;;;;;;;31.38;16.00;;;-0.40;99.90;;;;;;5092295;28;20052;-44
2021/12/23 08:26:14;;;;;;;29.35;16.00;;;-0.40;99.90;;;;;;5092511;28;20035;-44
2021/12/23 08:28:39;;;;;;;29.30;17.40;;;-0.40;99.90;;;;;;5091246;28;20554;-43
2021/12/23 08:31:05;;;;;;;29.75;14.85;;;-0.30;99.90;;;;;;5092044;28;20035;-44
2021/12/23 08:33:30;;;;;;;27.17;13.60;;;-0.30;99.90;;;;;;5091812;28;20093;-44
2021/12/23 08:35:56;;;;;;;23.48;13.73;;;-0.20;99.90;;;;;;5092183;28;20024;-43
2021/12/23 08:38:21;;;;;;;23.10;12.80;;;-0.20;99.90;;;;;;5091293;28;20063;-43
2021/12/23 08:40:47;;;;;;;23.50;12.98;;;-0.20;99.90;;;;;;5092050;28;20042;-43
2021/12/23 08:43:13;;;;;;;21.27;11.25;;;-0.20;99.90;;;;;;5090658;28;20436;-43
2021/12/23 08:45:39;;;;;;;21.58;11.98;;;-0.30;99.90;;;;;;5091715;28;20123;-47
2021/12/23 08:48:05;;;;;;;25.13;12.30;;;-0.30;99.90;;;;;;5083652;28;20433;-44
2021/12/23 08:50:31;;;;;;;23.40;12.13;;;-0.30;99.90;;;;;;5085037;28;20024;-43
2021/12/23 08:52:58;;;;;;;18.08;11.55;;;-0.30;99.90;;;;;;5090172;28;20028;-43
2021/12/23 08:55:27;;;;;;;22.58;11.65;;;-0.20;99.90;;;;;;5091629;28;20016;-43
2021/12/23 08:57:56;;;;;;;22.50;12.35;;;-0.20;99.90;;;;;;5089802;28;20093;-43
2021/12/23 09:00:22;;;;;;;25.25;12.25;;;-0.20;99.90;;;;;;5091876;28;20028;-44
2021/12/23 09:02:48;;;;;;;23.25;12.07;;;-0.10;99.90;;;;;;5085316;28;20032;-43
2021/12/23 09:05:15;;;;;;;24.33;12.68;;;-0.10;99.90;;;;;;5070142;28;20111;-43
2021/12/23 09:07:40;;;;;;;24.27;12.38;;;-0.10;99.90;;;;;;5069036;28;20077;-43
2021/12/23 09:10:09;;;;;;;23.15;12.90;;;-0.10;99.90;;;;;;5068745;28;20119;-44
2021/12/23 09:12:35;;;;;;;25.95;12.70;;;-0.10;99.90;;;;;;5068260;28;20017;-43
2021/12/23 09:15:01;;;;;;;25.52;12.77;;;-0.10;99.90;;;;;;5069256;28;20220;-43
2021/12/23 09:17:26;;;;;;;22.83;12.73;;;0.00;99.90;;;;;;5072805;28;20449;-43
2021/12/23 09:19:52;;;;;;;23.50;12.10;;;0.00;99.90;;;;;;5081667;28;20550;-44
2021/12/23 09:22:18;;;;;;;20.23;11.65;;;0.00;99.90;;;;;;5091262;28;20036;-43
2021/12/23 09:24:46;;;;;;;19.55;11.40;;;0.10;99.90;;;;;;5084119;28;20041;-43
2021/12/23 09:27:34;;;;;;;23.13;12.88;;;0.10;99.90;;;;;;5070949;28;20086;-44
2021/12/23 09:35:30;;;;;;;20.75;11.63;;;0.20;99.90;;;;;;5091232;28;20066;-44
2021/12/23 09:37:57;;;;;;;24.25;13.90;;;0.30;99.90;;;;;;5074862;28;20610;-46
2021/12/23 09:40:23;;;;;;;23.67;13.25;;;0.30;99.90;;;;;;5070738;28;20169;-47
2021/12/23 09:42:50;;;;;;;24.05;13.13;;;0.30;99.90;;;;;;5070607;28;20024;-43
2021/12/23 09:45:18;;;;;;;22.63;12.65;;;0.30;99.90;;;;;;5070674;28;20437;-44
2021/12/23 09:47:48;;;;;;;26.23;14.00;;;0.40;99.90;;;;;;5076758;28;20024;-45
2021/12/23 09:50:17;;;;;;;24.02;14.10;;;0.40;99.90;;;;;;5082045;28;20051;-43
2021/12/23 09:52:46;;;;;;;26.30;14.02;;;0.40;99.90;;;;;;5090690;28;20050;-43
2021/12/23 09:55:13;;;;;;;29.73;14.60;;;0.40;99.90;;;;;;5090617;28;20038;-44
2021/12/23 09:57:39;;;;;;;25.90;13.38;;;0.40;99.90;;;;;;5090176;28;20020;-44
2021/12/23 10:00:09;;;;;;;24.02;13.52;;;0.50;99.90;;;;;;5090028;28;20101;-43
2021/12/23 10:02:35;;;;;;;22.50;12.75;;;0.40;99.90;;;;;;5090163;28;20020;-43
2021/12/23 10:05:01;;;;;;;21.83;13.32;;;0.50;99.90;;;;;;5090320;28;20028;-44
2021/12/23 10:07:27;;;;;;;24.30;13.70;;;0.50;99.90;;;;;;5089690;28;20024;-44
2021/12/23 10:10:10;;;;;;;27.23;12.73;;;0.50;99.90;;;;;;5090340;28;20031;-43
2021/12/23 10:27:05;;;;;;;25.45;13.32;;;0.50;99.90;;;;;;5078041;28;20069;-43
2021/12/23 10:38:20;;;;;;;22.00;13.00;;;0.70;99.90;;;;;;5089414;28;20081;-44
2021/12/23 10:40:49;;;;;;;24.70;12.48;;;0.70;99.90;;;;;;5089931;28;20024;-45
2021/12/23 10:43:22;;;;;;;21.35;12.55;;;0.60;99.90;;;;;;5089542;28;20110;-44
2021/12/23 10:45:58;;;;;;;22.25;13.15;;;0.70;99.90;;;;;;5088779;28;20166;-43
2021/12/23 10:48:26;;;;;;;23.42;13.00;;;0.70;99.90;;;;;;5088476;28;20020;-46
2021/12/23 10:51:16;;;;;;;21.50;12.98;;;0.70;99.90;;;;;;5105273;28;20192;-43
2021/12/23 10:53:50;;;;;;;27.60;14.57;;;0.70;99.90;;;;;;5089444;28;20032;-44
2021/12/23 10:59:24;;;;;;;26.92;14.10;;;0.80;99.90;;;;;;5089073;28;20027;-44
2021/12/23 11:02:10;;;;;;;24.85;13.75;;;0.80;99.90;;;;;;5088327;28;20409;-43
2021/12/23 11:05:02;;;;;;;30.38;14.43;;;0.80;99.90;;;;;;5072030;28;20067;-44
2021/12/23 11:38:35;;;;;;;36.78;20.20;;;1.10;99.90;;;;;;5088553;28;20137;-44
2021/12/23 11:41:16;;;;;;;41.00;22.05;;;1.20;99.90;;;;;;5079539;28;20040;-44
2021/12/23 11:43:48;;;;;;;42.00;22.45;;;1.20;99.90;;;;;;5068626;28;20501;-44
2021/12/23 11:46:23;;;;;;;47.75;21.98;;;1.30;99.90;;;;;;5068606;28;20028;-44
2021/12/23 11:48:53;;;;;;;41.25;22.85;;;1.30;99.90;;;;;;5075699;28;20055;-44
2021/12/23 11:51:28;;;;;;;43.75;24.70;;;1.40;99.90;;;;;;5048321;28;20052;-44
2021/12/23 11:53:54;;;;;;;47.72;24.55;;;1.30;99.90;;;;;;5048564;28;20029;-44
2021/12/23 11:56:21;;;;;;;39.30;22.48;;;1.30;99.90;;;;;;5068707;28;20181;-43
2021/12/23 11:58:48;;;;;;;45.33;25.50;;;1.30;99.90;;;;;;5073563;28;20069;-44
2021/12/23 12:01:17;;;;;;;41.33;24.60;;;1.40;99.90;;;;;;5087200;28;20167;-43
2021/12/23 12:04:04;;;;;;;47.55;26.13;;;1.50;99.90;;;;;;5078402;28;20039;-43
2021/12/23 12:06:36;;;;;;;45.17;24.10;;;1.50;99.90;;;;;;5078036;28;20286;-43
2021/12/23 12:09:16;;;;;;;44.00;25.05;;;1.50;99.90;;;;;;5074675;28;20086;-43
2021/12/23 12:11:48;;;;;;;45.38;25.30;;;1.60;99.90;;;;;;5073635;28;20543;-43
2021/12/23 12:14:41;;;;;;;46.30;24.50;;;1.60;99.90;;;;;;5074101;28;20485;-43
2021/12/23 12:17:24;;;;;;;42.10;25.17;;;1.60;99.90;;;;;;5068193;28;20422;-44
2021/12/23 12:19:56;;;;;;;51.17;25.73;;;1.60;99.90;;;;;;5071495;28;20520;-43
2021/12/23 12:22:59;;;;;;;45.58;26.02;;;1.60;99.90;;;;;;5067766;28;20025;-44
2021/12/23 12:25:24;;;;;;;49.00;26.40;;;1.60;99.90;;;;;;5068285;28;20024;-45
2021/12/23 12:27:55;;;;;;;43.75;24.27;;;1.60;99.90;;;;;;5067531;28;20168;-46
2021/12/23 12:30:34;;;;;;;47.63;26.48;;;1.60;99.90;;;;;;5068460;28;20078;-43
2021/12/23 12:33:03;;;;;;;46.10;25.27;;;1.60;99.90;;;;;;5067887;28;20100;-42
2021/12/23 12:35:29;;;;;;;43.42;24.95;;;1.60;99.90;;;;;;5068163;28;20012;-45
2021/12/23 12:38:18;;;;;;;48.35;24.90;;;1.70;99.90;;;;;;5067283;28;20028;-44
2021/12/23 12:41:11;;;;;;;44.08;24.67;;;1.70;99.90;;;;;;5067874;28;20041;-43
2021/12/23 12:43:48;;;;;;;41.92;23.75;;;1.60;99.90;;;;;;5066678;28;20024;-44
2021/12/23 12:46:40;;;;;;;47.25;25.70;;;1.60;99.90;;;;;;5070815;28;20093;-43
2021/12/23 12:49:13;;;;;;;48.25;26.17;;;1.60;99.90;;;;;;5069716;28;20028;-43
2021/12/23 12:51:43;;;;;;;43.83;26.08;;;1.60;99.90;;;;;;5071481;28;20031;-43
2021/12/23 12:54:14;;;;;;;47.00;24.50;;;1.70;99.90;;;;;;5071480;28;20028;-45
2021/12/23 12:56:55;;;;;;;44.83;24.85;;;1.70;99.90;;;;;;5071582;28;20028;-43
2021/12/23 12:59:23;;;;;;;;;;;1.80;99.90;;;;;;5071254;28;20802;-43
2021/12/23 13:01:51;;;;;;;50.47;26.42;;;1.70;99.90;;;;;;5071069;28;19915;-45
2021/12/23 13:04:34;;;;;;;45.03;24.60;;;1.80;99.90;;;;;;5071352;28;20135;-43
2021/12/23 13:07:14;;;;;;;42.15;23.35;;;1.80;99.90;;;;;;5071240;28;20077;-43
2021/12/23 13:10:19;;;;;;;44.95;24.15;;;1.80;99.90;;;;;;5071065;28;20024;-45
2021/12/23 13:12:48;;;;;;;45.45;24.25;;;1.80;99.90;;;;;;5077890;28;20047;-43
2021/12/23 13:15:16;;;;;;;46.85;24.73;;;1.80;99.90;;;;;;5082894;28;20027;-45
2021/12/23 13:17:47;;;;;;;47.47;25.02;;;1.80;99.90;;;;;;5088730;28;20016;-43
2021/12/23 13:20:13;;;;;;;48.25;25.85;;;1.80;99.90;;;;;;5082682;28;20027;-43
2021/12/23 13:22:39;;;;;;;41.53;24.08;;;1.80;99.90;;;;;;5106865;28;20049;-44
2021/12/23 13:25:07;;;;;;;52.38;25.90;;;1.80;99.90;;;;;;5091244;28;20036;-43
2021/12/23 13:27:32;;;;;;;46.72;25.65;;;1.80;99.90;;;;;;5084945;28;20020;-43
2021/12/23 13:30:06;;;;;;;49.83;24.83;;;1.80;99.90;;;;;;5081337;28;20039;-43
2021/12/23 13:32:33;;;;;;;43.70;24.52;;;1.80;99.90;;;;;;5089387;28;20020;-44
2021/12/23 13:35:10;;;;;;;43.03;23.60;;;1.80;99.90;;;;;;5079847;28;20017;-43
2021/12/23 13:37:35;;;;;;;45.63;24.40;;;1.80;99.90;;;;;;5090261;28;20020;-43
2021/12/23 13:40:01;;;;;;;41.67;25.30;;;1.80;99.90;;;;;;5090842;28;20401;-47
2021/12/23 13:42:26;;;;;;;45.88;25.05;;;1.80;99.90;;;;;;5091141;28;20027;-44
2021/12/23 13:44:54;;;;;;;45.05;24.88;;;1.90;99.90;;;;;;5090696;28;20516;-46